createdAt,value
2023-02-04T00:00:18.278Z,102782.84
2023-02-04T00:02:45.427Z,102787.28
2023-02-04T00:05:13.790Z,102790.91
2023-02-04T00:07:41.527Z,102789.50
2023-02-04T00:10:10.204Z,102800.59
2023-02-04T00:12:38.504Z,102796.66
2023-02-04T00:15:06.265Z,102802.47
2023-02-04T00:17:33.228Z,102798.50
2023-02-04T00:20:00.183Z,102815.72
2023-02-04T00:22:28.857Z,102811.09
2023-02-04T00:24:55.875Z,102822.13
2023-02-04T00:27:23.210Z,102834.88
2023-02-04T00:29:51.465Z,102825.69
2023-02-04T00:32:18.681Z,102834.69
2023-02-04T00:34:45.664Z,102842.59
2023-02-04T00:37:12.602Z,102846.31
2023-02-04T00:39:39.564Z,102857.00
2023-02-04T00:42:06.812Z,102864.31
2023-02-04T00:44:33.906Z,102862.91
2023-02-04T00:47:02.299Z,102864.22
2023-02-04T00:49:29.177Z,102865.44
2023-02-04T00:51:56.123Z,102871.09
2023-02-04T00:54:23.022Z,102870.50
2023-02-04T00:56:49.947Z,102866.31
2023-02-04T00:59:16.886Z,102881.41
2023-02-04T01:01:43.894Z,102896.50
2023-02-04T01:04:12.124Z,102899.28
2023-02-04T01:06:38.989Z,102892.31
2023-02-04T01:09:06.323Z,102896.75
2023-02-04T01:11:33.380Z,102907.41
2023-02-04T01:14:00.432Z,102910.28
2023-02-04T01:16:27.449Z,102915.78
2023-02-04T01:18:55.845Z,102924.69
2023-02-04T01:21:25.087Z,102931.88
2023-02-04T01:23:52.509Z,102939.06
2023-02-04T01:26:20.368Z,102946.22
2023-02-04T01:28:47.606Z,102952.56
2023-02-04T01:31:15.128Z,102958.81
2023-02-04T01:33:42.508Z,102963.47
2023-02-04T01:36:10.596Z,102968.03
2023-02-04T01:38:38.850Z,102969.94
2023-02-04T01:41:07.146Z,102968.25
2023-02-04T01:43:34.940Z,102985.97
2023-02-04T01:46:02.705Z,102994.00
2023-02-04T01:48:30.303Z,102997.59
2023-02-04T01:51:04.840Z,102997.00
2023-02-04T01:53:33.372Z,102994.59
2023-02-04T01:56:02.388Z,103003.47
2023-02-04T01:58:32.208Z,103013.25
2023-02-04T02:00:59.161Z,103018.53
2023-02-04T02:03:26.071Z,103023.78
2023-02-04T02:05:55.520Z,103021.16
2023-02-04T02:08:22.440Z,103022.22
2023-02-04T02:10:50.069Z,103026.41
2023-02-04T02:13:19.680Z,103040.34
2023-02-04T02:15:48.111Z,103053.50
2023-02-04T02:18:16.006Z,103064.97
2023-02-04T02:20:44.138Z,103070.47
2023-02-04T02:23:22.789Z,103080.50
2023-02-04T02:25:51.619Z,103091.38
2023-02-04T02:28:22.691Z,103097.00
2023-02-04T02:30:50.714Z,103090.28
2023-02-04T02:33:21.121Z,103097.56
2023-02-04T02:35:48.873Z,103108.22
2023-02-04T02:38:18.627Z,103111.78
2023-02-04T02:40:47.766Z,103117.88
2023-02-04T02:43:20.591Z,103128.41
2023-02-04T02:45:48.632Z,103134.53
2023-02-04T02:48:15.764Z,103136.44
2023-02-04T02:50:44.071Z,103135.38
2023-02-04T02:53:13.604Z,103139.78
2023-02-04T02:55:42.047Z,103140.00
2023-02-04T02:58:18.134Z,103142.13
2023-02-04T03:00:45.233Z,103150.28
2023-02-04T03:03:18.117Z,103139.25
2023-02-04T03:05:49.569Z,103140.16
2023-02-04T03:08:16.922Z,103143.53
2023-02-04T03:10:45.193Z,103142.38
2023-02-04T03:13:14.912Z,103144.03
2023-02-04T03:15:47.479Z,103142.13
2023-02-04T03:18:19.152Z,103142.97
2023-02-04T03:20:50.657Z,103140.47
2023-02-04T03:23:18.859Z,103153.72
2023-02-04T03:25:46.213Z,103150.50
2023-02-04T03:28:13.254Z,103152.41
2023-02-04T03:30:40.328Z,103155.22
2023-02-04T03:33:08.691Z,103158.06
2023-02-04T03:35:35.810Z,103165.22
2023-02-04T03:38:02.724Z,103171.47
2023-02-04T03:40:30.107Z,103179.66
2023-02-04T03:42:59.638Z,103180.97
2023-02-04T03:45:28.520Z,103195.28
2023-02-04T03:47:59.496Z,103206.03
2023-02-04T03:50:27.805Z,103206.88
2023-02-04T03:52:54.773Z,103208.53
2023-02-04T03:55:21.820Z,103206.53
2023-02-04T03:57:48.753Z,103215.16
2023-02-04T04:00:16.070Z,103216.72
2023-02-04T04:02:42.959Z,103233.34
2023-02-04T04:05:11.472Z,103226.41
2023-02-04T04:07:39.727Z,103223.03
2023-02-04T04:10:07.573Z,103224.72
2023-02-04T04:12:34.593Z,103230.81
2023-02-04T04:15:01.592Z,103236.94
2023-02-04T04:17:28.567Z,103234.28
2023-02-04T04:19:55.463Z,103241.97
2023-02-04T04:22:22.364Z,103252.38
2023-02-04T04:24:50.589Z,103259.22
2023-02-04T04:27:17.548Z,103262.69
2023-02-04T04:29:44.469Z,103269.53
2023-02-04T04:32:11.402Z,103273.63
2023-02-04T04:34:38.388Z,103285.94
2023-02-04T04:37:05.301Z,103285.53
2023-02-04T04:39:32.240Z,103285.34
2023-02-04T04:42:00.414Z,103290.91
2023-02-04T04:44:27.277Z,103294.81
2023-02-04T04:46:54.608Z,103300.59
2023-02-04T04:49:21.614Z,103293.13
2023-02-04T04:51:48.509Z,103287.88
2023-02-04T04:54:15.471Z,103301.75
2023-02-04T04:56:42.338Z,103312.06
2023-02-04T04:59:10.534Z,103317.13
2023-02-04T05:01:37.481Z,103320.38
2023-02-04T05:04:04.711Z,103323.66
2023-02-04T05:06:31.587Z,103332.28
2023-02-04T05:08:58.535Z,103328.69
2023-02-04T05:11:25.425Z,103331.09
2023-02-04T05:13:52.455Z,103332.88
2023-02-04T05:16:20.720Z,103339.19
2023-02-04T05:18:47.627Z,103342.69
2023-02-04T05:21:14.482Z,103353.13
2023-02-04T05:23:41.399Z,103360.03
2023-02-04T05:26:08.323Z,103354.97
2023-02-04T05:28:35.176Z,103352.34
2023-02-04T05:31:02.717Z,103357.59
2023-02-04T05:33:30.900Z,103357.84
2023-02-04T05:35:57.760Z,103359.81
2023-02-04T05:38:24.611Z,103367.84
2023-02-04T05:40:51.465Z,103367.84
2023-02-04T05:43:18.379Z,103372.56
2023-02-04T05:45:45.276Z,103375.59
2023-02-04T05:48:12.239Z,103360.03
2023-02-04T05:50:40.517Z,103370.75
2023-02-04T05:53:07.418Z,103369.28
2023-02-04T05:55:34.261Z,103378.31
2023-02-04T05:58:01.174Z,103386.50
2023-02-04T06:00:28.016Z,103400.69
2023-02-04T06:02:54.892Z,103393.84
2023-02-04T06:05:23.064Z,103408.78
2023-02-04T06:07:51.281Z,103411.19
2023-02-04T06:10:18.429Z,103415.34
2023-02-04T06:12:45.268Z,103410.59
2023-02-04T06:15:12.929Z,103418.28
2023-02-04T06:17:39.933Z,103419.97
2023-02-04T06:20:08.780Z,103431.53
2023-02-04T06:22:35.619Z,103431.00
2023-02-04T06:25:04.163Z,103431.28
2023-02-04T06:27:31.082Z,103434.22
2023-02-04T06:29:58.215Z,103444.09
2023-02-04T06:32:25.166Z,103439.97
2023-02-04T06:34:52.050Z,103439.13
2023-02-04T06:37:18.957Z,103444.50
2023-02-04T06:39:45.892Z,103444.69
2023-02-04T06:42:14.159Z,103450.34
2023-02-04T06:44:41.019Z,103449.06
2023-02-04T06:47:08.058Z,103449.56
2023-02-04T06:49:34.919Z,103450.03
2023-02-04T06:52:01.836Z,103449.47
2023-02-04T06:54:28.691Z,103469.00
2023-02-04T06:56:55.521Z,103477.06
2023-02-04T06:59:25.266Z,103490.47
2023-02-04T07:01:52.143Z,103494.31
2023-02-04T07:04:18.982Z,103484.97
2023-02-04T07:06:45.821Z,103500.91
2023-02-04T07:09:12.757Z,103504.47
2023-02-04T07:11:39.632Z,103516.66
2023-02-04T07:14:06.493Z,103520.88
2023-02-04T07:16:34.672Z,103518.06
2023-02-04T07:19:01.558Z,103518.63
2023-02-04T07:21:28.429Z,103517.38
2023-02-04T07:23:55.327Z,103516.34
2023-02-04T07:26:22.539Z,103522.28
2023-02-04T07:28:49.426Z,103523.75
2023-02-04T07:31:16.333Z,103524.31
2023-02-04T07:33:44.615Z,103528.44
2023-02-04T07:36:11.563Z,103522.38
2023-02-04T07:38:38.533Z,103526.84
2023-02-04T07:41:05.859Z,103531.47
2023-02-04T07:43:33.059Z,103536.91
2023-02-04T07:45:59.933Z,103544.31
2023-02-04T07:48:26.824Z,103534.84
2023-02-04T07:50:55.035Z,103547.22
2023-02-04T07:53:21.899Z,103545.53
2023-02-04T07:55:48.827Z,103545.63
2023-02-04T07:58:15.644Z,103550.78
2023-02-04T08:00:42.553Z,103551.81
2023-02-04T08:03:09.473Z,103557.06
2023-02-04T08:05:36.401Z,103552.59
2023-02-04T08:08:04.850Z,103559.41
2023-02-04T08:10:32.042Z,103560.94
2023-02-04T08:12:59.025Z,103570.41
2023-02-04T08:15:25.965Z,103565.59
2023-02-04T08:17:52.855Z,103567.66
2023-02-04T08:20:19.895Z,103571.41
2023-02-04T08:22:46.845Z,103578.72
2023-02-04T08:25:15.860Z,103575.63
2023-02-04T08:27:42.764Z,103589.03
2023-02-04T08:30:11.752Z,103598.94
2023-02-04T08:32:39.272Z,103595.19
2023-02-04T08:35:07.582Z,103594.81
2023-02-04T08:37:34.660Z,103603.97
2023-02-04T08:40:01.643Z,103602.25
2023-02-04T08:42:29.997Z,103605.97
2023-02-04T08:44:56.936Z,103614.22
2023-02-04T08:47:23.763Z,103613.63
2023-02-04T08:49:50.651Z,103621.97
2023-02-04T08:52:17.583Z,103624.28
2023-02-04T08:54:44.544Z,103622.94
2023-02-04T08:57:11.477Z,103629.81
2023-02-04T08:59:39.686Z,103638.53
2023-02-04T09:02:06.583Z,103644.25
2023-02-04T09:04:33.915Z,103643.53
2023-02-04T09:07:00.839Z,103644.19
2023-02-04T09:09:27.710Z,103640.31
2023-02-04T09:11:54.611Z,103638.53
2023-02-04T09:14:21.568Z,103648.44
2023-02-04T09:16:49.731Z,103656.53
2023-02-04T09:19:19.084Z,103651.69
2023-02-04T09:21:46.030Z,103662.88
2023-02-04T09:24:12.868Z,103662.56
2023-02-04T09:26:39.773Z,103665.59
2023-02-04T09:29:06.605Z,103663.38
2023-02-04T09:31:33.571Z,103667.50
2023-02-04T09:34:01.861Z,103680.44
2023-02-04T09:36:30.480Z,103680.56
2023-02-04T09:38:57.474Z,103675.41
2023-02-04T09:41:24.472Z,103664.66
2023-02-04T09:43:51.489Z,103671.63
2023-02-04T09:46:23.680Z,103669.59
2023-02-04T09:48:51.316Z,103674.38
2023-02-04T09:51:25.212Z,103672.25
2023-02-04T09:53:55.405Z,103670.97
2023-02-04T09:56:28.147Z,103672.75
2023-02-04T09:58:55.011Z,103670.41
2023-02-04T10:01:22.054Z,103674.19
2023-02-04T10:03:51.334Z,103684.34
2023-02-04T10:06:22.254Z,103692.13
2023-02-04T10:08:51.932Z,103693.53
2023-02-04T10:11:22.120Z,103695.16
2023-02-04T10:13:52.352Z,103700.41
2023-02-04T10:16:29.569Z,103697.34
2023-02-04T10:18:59.253Z,103703.72
2023-02-04T10:21:32.091Z,103698.34
2023-02-04T10:24:02.575Z,103705.44
2023-02-04T10:26:32.336Z,103696.94
2023-02-04T10:29:01.315Z,103702.63
2023-02-04T10:31:33.061Z,103695.00
2023-02-04T10:34:11.944Z,103697.78
2023-02-04T10:36:43.043Z,103697.38
2023-02-04T10:39:16.914Z,103696.31
2023-02-04T10:41:50.014Z,103706.13
2023-02-04T10:44:20.962Z,103701.94
2023-02-04T10:46:48.410Z,103717.94
2023-02-04T10:49:21.923Z,103710.94
2023-02-04T10:51:52.755Z,103725.94
2023-02-04T10:54:31.969Z,103724.44
2023-02-04T10:57:02.988Z,103715.59
2023-02-04T10:59:30.283Z,103726.94
2023-02-04T11:02:00.689Z,103721.00
2023-02-04T11:04:28.755Z,103709.44
2023-02-04T11:06:56.948Z,103701.16
2023-02-04T11:09:23.910Z,103697.69
2023-02-04T11:11:51.631Z,103697.19
2023-02-04T11:14:28.537Z,103699.88
2023-02-04T11:17:01.418Z,103701.00
2023-02-04T11:19:36.587Z,103706.53
2023-02-04T11:22:22.675Z,103716.81
2023-02-04T11:24:50.688Z,103709.78
2023-02-04T11:27:24.962Z,103713.03
2023-02-04T11:29:52.361Z,103712.81
2023-02-04T11:32:35.021Z,103714.78
2023-02-04T11:35:24.669Z,103713.53
2023-02-04T11:37:54.576Z,103707.06
2023-02-04T11:40:32.407Z,103709.84
2023-02-04T11:43:03.467Z,103712.69
2023-02-04T11:45:34.082Z,103701.41
2023-02-04T11:48:04.199Z,103706.09
2023-02-04T11:50:34.758Z,103703.91
2023-02-04T11:53:03.055Z,103709.47
2023-02-04T11:55:34.648Z,103705.94
2023-02-04T11:58:01.704Z,103714.47
2023-02-04T12:00:32.057Z,103713.78
2023-02-04T12:03:01.748Z,103718.72
2023-02-04T12:05:40.744Z,103719.28
2023-02-04T12:08:23.980Z,103717.22
2023-02-04T12:11:00.545Z,103728.84
2023-02-04T12:13:30.733Z,103728.13
2023-02-04T12:16:04.300Z,103722.78
2023-02-04T12:18:34.514Z,103716.66
2023-02-04T12:21:04.280Z,103723.53
2023-02-04T12:23:32.904Z,103731.03
2023-02-04T12:26:00.129Z,103732.88
2023-02-04T12:28:28.844Z,103738.19
2023-02-04T12:30:56.543Z,103736.66
2023-02-04T12:33:23.629Z,103735.94
2023-02-04T12:35:50.769Z,103732.88
2023-02-04T12:38:19.189Z,103737.47
2023-02-04T12:40:47.888Z,103740.41
2023-02-04T12:43:14.729Z,103742.22
2023-02-04T12:45:45.623Z,103740.53
2023-02-04T12:48:13.901Z,103739.72
2023-02-04T12:50:41.167Z,103737.44
2023-02-04T12:53:08.784Z,103734.50
2023-02-04T12:55:36.317Z,103727.53
2023-02-04T12:58:04.912Z,103726.31
2023-02-04T13:00:31.982Z,103734.22
2023-02-04T13:02:59.030Z,103725.75
2023-02-04T13:05:27.077Z,103721.72
2023-02-04T13:07:54.106Z,103724.00
2023-02-04T13:10:21.805Z,103729.56
2023-02-04T13:12:48.933Z,103732.19
2023-02-04T13:15:17.298Z,103740.41
2023-02-04T13:17:44.273Z,103738.06
2023-02-04T13:20:12.828Z,103733.84
2023-02-04T13:22:39.846Z,103737.69
2023-02-04T13:25:07.149Z,103736.84
2023-02-04T13:27:34.117Z,103743.63
2023-02-04T13:30:00.978Z,103741.66
2023-02-04T13:32:29.195Z,103740.59
2023-02-04T13:34:56.102Z,103744.81
2023-02-04T13:37:23.133Z,103745.19
2023-02-04T13:39:49.989Z,103749.44
2023-02-04T13:42:16.894Z,103748.84
2023-02-04T13:44:44.281Z,103741.41
2023-02-04T13:47:11.335Z,103743.94
2023-02-04T13:49:39.508Z,103751.50
2023-02-04T13:52:06.407Z,103750.66
2023-02-04T13:54:33.712Z,103756.06
2023-02-04T13:57:01.105Z,103746.41
2023-02-04T13:59:27.943Z,103736.09
2023-02-04T14:01:54.955Z,103743.31
2023-02-04T14:04:21.906Z,103742.69
2023-02-04T14:06:50.218Z,103742.81
2023-02-04T14:09:17.171Z,103739.69
2023-02-04T14:11:44.316Z,103740.91
2023-02-04T14:14:11.232Z,103749.41
2023-02-04T14:16:38.260Z,103745.81
2023-02-04T14:19:06.043Z,103747.25
2023-02-04T14:21:33.025Z,103751.69
2023-02-04T14:24:01.411Z,103757.00
2023-02-04T14:26:28.350Z,103754.81
2023-02-04T14:28:55.230Z,103749.13
2023-02-04T14:31:22.157Z,103755.47
2023-02-04T14:33:50.464Z,103760.75
2023-02-04T14:36:17.591Z,103755.94
2023-02-04T14:38:44.474Z,103766.75
2023-02-04T14:41:16.196Z,103764.00
2023-02-04T14:43:43.169Z,103767.00
2023-02-04T14:46:10.160Z,103745.84
2023-02-04T14:48:37.209Z,103757.38
2023-02-04T14:51:05.361Z,103762.38
2023-02-04T14:53:32.212Z,103769.19
2023-02-04T14:55:59.104Z,103765.44
2023-02-04T14:58:28.065Z,103769.94
2023-02-04T15:00:55.502Z,103769.88
2023-02-04T15:03:22.936Z,103765.16
2023-02-04T15:05:49.864Z,103755.66
2023-02-04T15:08:16.796Z,103754.19
2023-02-04T15:10:43.670Z,103766.22
2023-02-04T15:13:11.214Z,103765.69
2023-02-04T15:15:39.414Z,103768.56
2023-02-04T15:18:06.604Z,103770.47
2023-02-04T15:20:33.763Z,103767.31
2023-02-04T15:23:01.080Z,103772.41
2023-02-04T15:25:28.198Z,103767.91
2023-02-04T15:27:55.229Z,103770.22
2023-02-04T15:30:22.691Z,103767.53
2023-02-04T15:32:50.980Z,103763.81
2023-02-04T15:35:17.952Z,103763.19
2023-02-04T15:37:44.808Z,103766.63
2023-02-04T15:40:12.142Z,103769.09
2023-02-04T15:42:39.082Z,103772.03
2023-02-04T15:45:07.259Z,103769.72
2023-02-04T15:47:34.284Z,103774.56
2023-02-04T15:50:05.800Z,103776.56
2023-02-04T15:52:32.669Z,103777.81
2023-02-04T15:54:59.763Z,103777.94
2023-02-04T15:57:26.610Z,103777.94
2023-02-04T15:59:53.639Z,103775.31
2023-02-04T16:02:20.586Z,103764.88
2023-02-04T16:04:47.878Z,103770.16
2023-02-04T16:07:16.289Z,103774.56
2023-02-04T16:09:43.743Z,103774.56
2023-02-04T16:12:10.695Z,103759.91
2023-02-04T16:14:37.585Z,103762.75
2023-02-04T16:17:06.837Z,103754.09
2023-02-04T16:19:33.775Z,103754.09
2023-02-04T16:22:00.708Z,103750.72
2023-02-04T16:24:28.879Z,103755.25
2023-02-04T16:26:55.775Z,103764.22
2023-02-04T16:29:22.717Z,103773.94
2023-02-04T16:31:49.644Z,103778.34
2023-02-04T16:34:16.522Z,103770.13
2023-02-04T16:36:43.379Z,103767.50
2023-02-04T16:39:10.241Z,103784.03
2023-02-04T16:41:38.517Z,103783.84
2023-02-04T16:44:05.364Z,103781.09
2023-02-04T16:46:33.679Z,103782.88
2023-02-04T16:49:01.191Z,103781.41
2023-02-04T16:51:29.045Z,103780.88
2023-02-04T16:53:55.933Z,103789.75
2023-02-04T16:56:22.954Z,103795.03
2023-02-04T16:58:51.134Z,103791.41
2023-02-04T17:01:18.068Z,103786.16
2023-02-04T17:03:46.000Z,103793.97
2023-02-04T17:06:16.250Z,103796.50
2023-02-04T17:08:43.316Z,103798.19
2023-02-04T17:11:28.734Z,103807.78
2023-02-04T17:13:57.669Z,103811.25
2023-02-04T17:16:24.762Z,103810.31
2023-02-04T17:18:51.723Z,103808.50
2023-02-04T17:21:18.615Z,103810.22
2023-02-04T17:23:45.525Z,103811.69
2023-02-04T17:26:12.468Z,103814.31
2023-02-04T17:28:39.801Z,103819.50
2023-02-04T17:31:08.461Z,103818.66
2023-02-04T17:33:35.602Z,103823.94
2023-02-04T17:36:03.836Z,103822.22
2023-02-04T17:38:31.560Z,103809.06
2023-02-04T17:40:58.557Z,103809.16
2023-02-04T17:43:25.909Z,103810.00
2023-02-04T17:45:52.901Z,103796.06
2023-02-04T17:48:21.466Z,103810.22
2023-02-04T17:50:48.413Z,103796.19
2023-02-04T17:53:15.330Z,103804.28
2023-02-04T17:55:42.185Z,103799.25
2023-02-04T17:58:15.189Z,103803.78
2023-02-04T18:00:45.752Z,103807.22
2023-02-04T18:03:15.297Z,103801.03
2023-02-04T18:05:46.984Z,103799.13
2023-02-04T18:08:18.702Z,103805.34
2023-02-04T18:10:50.474Z,103805.34
2023-02-04T18:13:20.109Z,103808.75
2023-02-04T18:15:51.069Z,103809.47
2023-02-04T18:18:26.186Z,103797.34
2023-02-04T18:21:00.116Z,103800.91
2023-02-04T18:23:30.584Z,103808.75
2023-02-04T18:26:11.377Z,103813.06
2023-02-04T18:28:44.377Z,103816.66
2023-02-04T18:31:29.892Z,103819.50
2023-02-04T18:33:57.201Z,103823.06
2023-02-04T18:36:27.387Z,103821.47
2023-02-04T18:38:55.303Z,103828.75
2023-02-04T18:41:33.602Z,103827.47
2023-02-04T18:44:17.659Z,103824.50
2023-02-04T18:46:47.953Z,103831.66
2023-02-04T18:49:25.788Z,103825.09
2023-02-04T18:51:55.209Z,103824.34
2023-02-04T18:54:30.856Z,103819.38
2023-02-04T18:57:31.144Z,103818.09
2023-02-04T19:00:27.624Z,103817.84
2023-02-04T19:02:59.150Z,103821.59
2023-02-04T19:05:34.486Z,103816.88
2023-02-04T19:08:40.392Z,103822.81
2023-02-04T19:11:33.017Z,103828.47
2023-02-04T19:14:00.253Z,103830.31
2023-02-04T19:16:36.681Z,103833.38
2023-02-04T19:19:27.423Z,103828.50
2023-02-04T19:21:54.327Z,103826.06
2023-02-04T19:24:27.649Z,103827.19
2023-02-04T19:26:57.109Z,103815.88
2023-02-04T19:29:41.737Z,103817.97
2023-02-04T19:32:28.457Z,103812.06
2023-02-04T19:35:01.009Z,103817.97
2023-02-04T19:37:39.080Z,103818.81
2023-02-04T19:40:27.642Z,103826.81
2023-02-04T19:43:02.033Z,103828.47
2023-02-04T19:45:28.932Z,103833.84
2023-02-04T19:47:57.411Z,103826.97
2023-02-04T19:50:28.197Z,103826.31
2023-02-04T19:53:00.713Z,103822.09
2023-02-04T19:55:37.218Z,103826.69
2023-02-04T19:58:17.747Z,103822.75
2023-02-04T20:00:57.405Z,103820.22
2023-02-04T20:03:41.916Z,103816.16
2023-02-04T20:06:30.043Z,103810.34
2023-02-04T20:09:04.463Z,103799.81
2023-02-04T20:11:54.002Z,103795.78
2023-02-04T20:14:49.934Z,103801.34
2023-02-04T20:17:34.203Z,103804.16
2023-02-04T20:20:24.642Z,103799.44
2023-02-04T20:22:54.741Z,103798.78
2023-02-04T20:25:41.977Z,103795.75
2023-02-04T20:28:38.419Z,103798.00
2023-02-04T20:31:25.694Z,103791.31
2023-02-04T20:33:55.958Z,103793.88
2023-02-04T20:36:42.025Z,103789.53
2023-02-04T20:39:35.942Z,103787.09
2023-02-04T20:42:37.110Z,103785.00
2023-02-04T20:45:28.497Z,103787.44
2023-02-04T20:47:59.968Z,103783.47
2023-02-04T20:50:38.326Z,103788.47
2023-02-04T20:53:24.919Z,103784.19
2023-02-04T20:55:55.129Z,103781.19
2023-02-04T20:58:26.641Z,103787.13
2023-02-04T21:00:55.980Z,103788.91
2023-02-04T21:03:27.454Z,103786.44
2023-02-04T21:05:57.765Z,103781.38
2023-02-04T21:08:29.608Z,103783.91
2023-02-04T21:11:01.988Z,103790.19
2023-02-04T21:13:29.280Z,103788.69
2023-02-04T21:15:57.847Z,103782.75
2023-02-04T21:18:25.053Z,103781.72
2023-02-04T21:20:51.910Z,103784.94
2023-02-04T21:23:19.723Z,103776.13
2023-02-04T21:25:48.127Z,103768.31
2023-02-04T21:28:15.308Z,103778.94
2023-02-04T21:30:42.551Z,103775.44
2023-02-04T21:33:11.615Z,103773.75
2023-02-04T21:35:39.466Z,103777.38
2023-02-04T21:38:07.526Z,103780.22
2023-02-04T21:40:37.569Z,103777.66
2023-02-04T21:43:07.881Z,103773.25
2023-02-04T21:45:36.803Z,103781.41
2023-02-04T21:48:05.064Z,103774.66
2023-02-04T21:50:33.849Z,103775.50
2023-02-04T21:53:01.097Z,103769.56
2023-02-04T21:55:28.906Z,103761.78
2023-02-04T21:57:56.205Z,103757.63
2023-02-04T22:00:24.374Z,103762.28
2023-02-04T22:02:52.635Z,103762.63
2023-02-04T22:05:21.097Z,103767.13
2023-02-04T22:07:50.116Z,103761.28
2023-02-04T22:10:22.993Z,103755.56
2023-02-04T22:12:50.148Z,103767.38
2023-02-04T22:15:17.572Z,103772.72
2023-02-04T22:17:45.259Z,103764.09
2023-02-04T22:20:15.616Z,103766.78
2023-02-04T22:22:43.662Z,103763.41
2023-02-04T22:25:14.211Z,103771.44
2023-02-04T22:27:41.470Z,103758.38
2023-02-04T22:30:12.042Z,103757.38
2023-02-04T22:32:39.272Z,103771.59
2023-02-04T22:35:09.930Z,103752.66
2023-02-04T22:37:37.217Z,103759.91
2023-02-04T22:40:05.828Z,103751.28
2023-02-04T22:42:34.142Z,103757.53
2023-02-04T22:45:02.517Z,103755.19
2023-02-04T22:47:30.143Z,103749.19
2023-02-04T22:49:57.081Z,103753.47
2023-02-04T22:52:24.352Z,103751.78
2023-02-04T22:54:51.533Z,103756.28
2023-02-04T22:57:18.549Z,103764.06
2023-02-04T22:59:46.865Z,103750.94
2023-02-04T23:02:14.088Z,103752.81
2023-02-04T23:04:43.909Z,103751.50
2023-02-04T23:07:12.116Z,103754.47
2023-02-04T23:09:39.786Z,103755.63
2023-02-04T23:12:12.923Z,103751.75
2023-02-04T23:14:41.738Z,103746.13
2023-02-04T23:17:10.702Z,103747.28
2023-02-04T23:19:38.080Z,103747.47
2023-02-04T23:22:07.166Z,103748.72
2023-02-04T23:24:35.086Z,103741.03
2023-02-04T23:27:03.061Z,103741.16
2023-02-04T23:29:35.357Z,103737.94
2023-02-04T23:32:03.984Z,103733.94
2023-02-04T23:34:32.518Z,103737.72
2023-02-04T23:36:59.536Z,103729.94
2023-02-04T23:39:27.019Z,103738.56
2023-02-04T23:41:53.930Z,103735.72
2023-02-04T23:44:21.069Z,103735.72
2023-02-04T23:46:48.063Z,103735.72
2023-02-04T23:49:15.592Z,103741.03
2023-02-04T23:51:44.128Z,103735.03
2023-02-04T23:54:11.225Z,103724.63
2023-02-04T23:56:38.128Z,103722.69
2023-02-04T23:59:05.717Z,103712.38
